sensor_id;sensor_type;location;lat;lon;timestamp;temperature;humidity
1175;DHT22;576;48.418;10.074;2024-03-02T00:01:12;22.80;56.80
1175;DHT22;576;48.418;10.074;2024-03-02T00:03:42;22.80;56.80
1175;DHT22;576;48.418;10.074;2024-03-02T00:06:10;22.80;56.80
1175;DHT22;576;48.418;10.074;2024-03-02T00:08:39;22.80;56.80
1175;DHT22;576;48.418;10.074;2024-03-02T00:11:07;22.80;56.80
1175;DHT22;576;48.418;10.074;2024-03-02T00:13:37;22.80;56.80
1175;DHT22;576;48.418;10.074;2024-03-02T00:16:08;22.80;56.80
1175;DHT22;576;48.418;10.074;2024-03-02T00:18:36;22.80;56.80
1175;DHT22;576;48.418;10.074;2024-03-02T00:21:06;22.80;56.80
1175;DHT22;576;48.418;10.074;2024-03-02T00:23:36;22.70;56.80
1175;DHT22;576;48.418;10.074;2024-03-02T00:26:05;22.70;56.80
1175;DHT22;576;48.418;10.074;2024-03-02T00:28:36;22.70;56.80
1175;DHT22;576;48.418;10.074;2024-03-02T00:31:07;22.70;56.80
1175;DHT22;576;48.418;10.074;2024-03-02T00:33:41;22.70;56.80
1175;DHT22;576;48.418;10.074;2024-03-02T00:36:10;22.70;56.80
1175;DHT22;576;48.418;10.074;2024-03-02T00:38:44;22.70;56.80
1175;DHT22;576;48.418;10.074;2024-03-02T00:41:21;22.70;56.80
1175;DHT22;576;48.418;10.074;2024-03-02T00:44:01;22.70;56.80
1175;DHT22;576;48.418;10.074;2024-03-02T00:46:33;22.70;56.80
1175;DHT22;576;48.418;10.074;2024-03-02T00:49:03;22.70;56.80
1175;DHT22;576;48.418;10.074;2024-03-02T00:51:33;22.70;56.80
1175;DHT22;576;48.418;10.074;2024-03-02T00:54:04;22.70;56.80
1175;DHT22;576;48.418;10.074;2024-03-02T00:56:33;22.70;56.80
1175;DHT22;576;48.418;10.074;2024-03-02T00:59:02;22.60;56.80
1175;DHT22;576;48.418;10.074;2024-03-02T01:01:32;22.60;56.80
1175;DHT22;576;48.418;10.074;2024-03-02T01:04:00;22.60;56.80
1175;DHT22;576;48.418;10.074;2024-03-02T01:06:28;22.60;56.80
1175;DHT22;576;48.418;10.074;2024-03-02T01:08:57;22.60;56.90
1175;DHT22;576;48.418;10.074;2024-03-02T01:11:25;22.60;56.90
1175;DHT22;576;48.418;10.074;2024-03-02T01:13:53;22.60;56.90
1175;DHT22;576;48.418;10.074;2024-03-02T01:16:22;22.60;56.90
1175;DHT22;576;48.418;10.074;2024-03-02T01:18:51;22.50;56.90
1175;DHT22;576;48.418;10.074;2024-03-02T01:21:20;22.60;56.90
1175;DHT22;576;48.418;10.074;2024-03-02T01:23:48;22.50;56.90
1175;DHT22;576;48.418;10.074;2024-03-02T01:26:16;22.50;57.00
1175;DHT22;576;48.418;10.074;2024-03-02T01:28:44;22.50;56.90
1175;DHT22;576;48.418;10.074;2024-03-02T01:31:12;22.50;57.00
1175;DHT22;576;48.418;10.074;2024-03-02T01:33:41;22.50;57.00
1175;DHT22;576;48.418;10.074;2024-03-02T01:36:10;22.50;57.00
1175;DHT22;576;48.418;10.074;2024-03-02T01:38:39;22.50;57.00
1175;DHT22;576;48.418;10.074;2024-03-02T01:41:07;22.50;57.00
1175;DHT22;576;48.418;10.074;2024-03-02T01:43:35;22.50;57.00
1175;DHT22;576;48.418;10.074;2024-03-02T01:46:07;22.50;57.00
1175;DHT22;576;48.418;10.074;2024-03-02T01:48:36;22.50;57.00
1175;DHT22;576;48.418;10.074;2024-03-02T01:51:04;22.40;57.00
1175;DHT22;576;48.418;10.074;2024-03-02T01:53:35;22.40;57.00
1175;DHT22;576;48.418;10.074;2024-03-02T01:56:04;22.40;57.00
1175;DHT22;576;48.418;10.074;2024-03-02T01:58:32;22.40;57.00
1175;DHT22;576;48.418;10.074;2024-03-02T02:01:00;22.40;57.00
1175;DHT22;576;48.418;10.074;2024-03-02T02:03:29;22.40;57.00
1175;DHT22;576;48.418;10.074;2024-03-02T02:05:57;22.40;57.00
1175;DHT22;576;48.418;10.074;2024-03-02T02:08:25;22.40;57.00
1175;DHT22;576;48.418;10.074;2024-03-02T02:10:55;22.40;57.00
1175;DHT22;576;48.418;10.074;2024-03-02T02:13:23;22.40;57.00
1175;DHT22;576;48.418;10.074;2024-03-02T02:15:52;22.40;57.00
1175;DHT22;576;48.418;10.074;2024-03-02T02:18:21;22.40;57.00
1175;DHT22;576;48.418;10.074;2024-03-02T02:20:49;22.40;57.00
1175;DHT22;576;48.418;10.074;2024-03-02T02:23:18;22.40;57.00
1175;DHT22;576;48.418;10.074;2024-03-02T02:25:47;22.30;57.00
1175;DHT22;576;48.418;10.074;2024-03-02T02:28:15;22.40;57.00
1175;DHT22;576;48.418;10.074;2024-03-02T02:30:43;22.30;56.90
1175;DHT22;576;48.418;10.074;2024-03-02T02:33:11;22.40;57.00
1175;DHT22;576;48.418;10.074;2024-03-02T02:35:40;22.30;57.00
1175;DHT22;576;48.418;10.074;2024-03-02T02:38:08;22.30;56.90
1175;DHT22;576;48.418;10.074;2024-03-02T02:40:38;22.30;56.90
1175;DHT22;576;48.418;10.074;2024-03-02T02:43:08;22.30;56.90
1175;DHT22;576;48.418;10.074;2024-03-02T02:45:36;22.30;57.00
1175;DHT22;576;48.418;10.074;2024-03-02T02:48:05;22.30;56.90
1175;DHT22;576;48.418;10.074;2024-03-02T02:50:33;22.30;57.00
1175;DHT22;576;48.418;10.074;2024-03-02T02:53:02;22.30;56.90
1175;DHT22;576;48.418;10.074;2024-03-02T02:55:30;22.30;57.00
1175;DHT22;576;48.418;10.074;2024-03-02T02:57:59;22.20;56.90
1175;DHT22;576;48.418;10.074;2024-03-02T03:00:28;22.20;56.90
1175;DHT22;576;48.418;10.074;2024-03-02T03:02:56;22.20;57.00
1175;DHT22;576;48.418;10.074;2024-03-02T03:05:24;22.20;57.00
1175;DHT22;576;48.418;10.074;2024-03-02T03:07:52;22.20;57.00
1175;DHT22;576;48.418;10.074;2024-03-02T03:10:21;22.20;56.90
1175;DHT22;576;48.418;10.074;2024-03-02T03:12:50;22.20;56.90
1175;DHT22;576;48.418;10.074;2024-03-02T03:15:20;22.20;57.00
1175;DHT22;576;48.418;10.074;2024-03-02T03:17:48;22.20;56.90
1175;DHT22;576;48.418;10.074;2024-03-02T03:20:17;22.20;56.90
1175;DHT22;576;48.418;10.074;2024-03-02T03:22:48;22.20;56.90
1175;DHT22;576;48.418;10.074;2024-03-02T03:25:16;22.20;56.90
1175;DHT22;576;48.418;10.074;2024-03-02T03:27:45;22.20;56.90
1175;DHT22;576;48.418;10.074;2024-03-02T03:30:13;22.20;56.90
1175;DHT22;576;48.418;10.074;2024-03-02T03:32:43;22.20;56.90
1175;DHT22;576;48.418;10.074;2024-03-02T03:35:12;22.10;56.90
1175;DHT22;576;48.418;10.074;2024-03-02T03:37:41;22.10;56.90
1175;DHT22;576;48.418;10.074;2024-03-02T03:40:10;22.10;56.90
1175;DHT22;576;48.418;10.074;2024-03-02T03:42:39;22.10;56.90
1175;DHT22;576;48.418;10.074;2024-03-02T03:45:07;22.10;56.90
1175;DHT22;576;48.418;10.074;2024-03-02T03:47:36;22.10;56.90
1175;DHT22;576;48.418;10.074;2024-03-02T03:50:07;22.10;56.90
1175;DHT22;576;48.418;10.074;2024-03-02T03:52:35;22.10;56.90
1175;DHT22;576;48.418;10.074;2024-03-02T03:55:04;22.10;56.90
1175;DHT22;576;48.418;10.074;2024-03-02T03:57:33;22.10;56.90
1175;DHT22;576;48.418;10.074;2024-03-02T04:00:02;22.10;57.00
1175;DHT22;576;48.418;10.074;2024-03-02T04:02:37;22.10;56.90
1175;DHT22;576;48.418;10.074;2024-03-02T04:05:08;22.00;56.90
1175;DHT22;576;48.418;10.074;2024-03-02T04:07:38;22.00;57.00
1175;DHT22;576;48.418;10.074;2024-03-02T04:10:08;22.00;57.00
1175;DHT22;576;48.418;10.074;2024-03-02T04:12:37;22.00;57.00
1175;DHT22;576;48.418;10.074;2024-03-02T04:15:06;22.00;57.00
1175;DHT22;576;48.418;10.074;2024-03-02T04:17:34;22.00;57.00
1175;DHT22;576;48.418;10.074;2024-03-02T04:20:04;22.00;57.00
1175;DHT22;576;48.418;10.074;2024-03-02T04:22:34;22.00;57.00
1175;DHT22;576;48.418;10.074;2024-03-02T04:25:03;22.00;57.00
1175;DHT22;576;48.418;10.074;2024-03-02T04:27:34;22.00;57.00
1175;DHT22;576;48.418;10.074;2024-03-02T04:30:04;22.00;57.00
1175;DHT22;576;48.418;10.074;2024-03-02T04:32:33;22.00;57.00
1175;DHT22;576;48.418;10.074;2024-03-02T04:35:03;22.00;57.00
1175;DHT22;576;48.418;10.074;2024-03-02T04:37:34;22.00;57.00
1175;DHT22;576;48.418;10.074;2024-03-02T04:40:03;22.00;57.00
1175;DHT22;576;48.418;10.074;2024-03-02T04:42:34;22.00;57.00
1175;DHT22;576;48.418;10.074;2024-03-02T04:45:03;22.00;57.00
1175;DHT22;576;48.418;10.074;2024-03-02T04:47:31;22.00;57.00
1175;DHT22;576;48.418;10.074;2024-03-02T04:50:00;22.00;57.00
1175;DHT22;576;48.418;10.074;2024-03-02T04:52:28;21.90;57.00
1175;DHT22;576;48.418;10.074;2024-03-02T04:54:57;21.90;57.00
1175;DHT22;576;48.418;10.074;2024-03-02T04:57:45;22.00;57.00
1175;DHT22;576;48.418;10.074;2024-03-02T05:00:15;22.00;57.10
1175;DHT22;576;48.418;10.074;2024-03-02T05:02:43;22.00;57.10
1175;DHT22;576;48.418;10.074;2024-03-02T05:05:11;22.00;57.00
1175;DHT22;576;48.418;10.074;2024-03-02T05:07:42;22.10;57.00
1175;DHT22;576;48.418;10.074;2024-03-02T05:10:12;22.10;57.00
1175;DHT22;576;48.418;10.074;2024-03-02T05:12:41;22.20;57.00
1175;DHT22;576;48.418;10.074;2024-03-02T05:15:23;22.20;56.90
1175;DHT22;576;48.418;10.074;2024-03-02T05:17:52;22.30;56.90
1175;DHT22;576;48.418;10.074;2024-03-02T05:20:20;22.30;56.80
1175;DHT22;576;48.418;10.074;2024-03-02T05:22:49;22.40;56.80
1175;DHT22;576;48.418;10.074;2024-03-02T05:25:18;22.50;56.70
1175;DHT22;576;48.418;10.074;2024-03-02T05:27:46;22.50;56.70
1175;DHT22;576;48.418;10.074;2024-03-02T05:30:15;22.60;56.50
1175;DHT22;576;48.418;10.074;2024-03-02T05:32:43;22.70;56.50
1175;DHT22;576;48.418;10.074;2024-03-02T05:35:11;22.70;56.40
1175;DHT22;576;48.418;10.074;2024-03-02T05:37:40;22.80;56.30
1175;DHT22;576;48.418;10.074;2024-03-02T05:40:09;22.80;56.20
1175;DHT22;576;48.418;10.074;2024-03-02T05:42:39;22.90;56.10
1175;DHT22;576;48.418;10.074;2024-03-02T05:45:08;22.90;56.00
1175;DHT22;576;48.418;10.074;2024-03-02T05:47:37;22.90;55.90
1175;DHT22;576;48.418;10.074;2024-03-02T05:50:06;22.90;55.90
1175;DHT22;576;48.418;10.074;2024-03-02T05:52:35;22.90;55.80
1175;DHT22;576;48.418;10.074;2024-03-02T05:55:03;22.90;55.80
1175;DHT22;576;48.418;10.074;2024-03-02T05:57:32;22.90;55.80
1175;DHT22;576;48.418;10.074;2024-03-02T06:00:16;22.90;55.80
1175;DHT22;576;48.418;10.074;2024-03-02T06:02:45;22.90;55.80
1175;DHT22;576;48.418;10.074;2024-03-02T06:05:13;22.80;55.80
1175;DHT22;576;48.418;10.074;2024-03-02T06:07:42;22.80;55.90
1175;DHT22;576;48.418;10.074;2024-03-02T06:10:10;22.80;55.90
1175;DHT22;576;48.418;10.074;2024-03-02T06:12:40;22.70;55.90
1175;DHT22;576;48.418;10.074;2024-03-02T06:15:09;22.70;55.90
1175;DHT22;576;48.418;10.074;2024-03-02T06:17:39;22.70;56.00
1175;DHT22;576;48.418;10.074;2024-03-02T06:20:08;22.60;56.00
1175;DHT22;576;48.418;10.074;2024-03-02T06:22:36;22.60;56.00
1175;DHT22;576;48.418;10.074;2024-03-02T06:25:05;22.60;56.10
1175;DHT22;576;48.418;10.074;2024-03-02T06:27:33;22.50;56.20
1175;DHT22;576;48.418;10.074;2024-03-02T06:30:02;22.50;56.20
1175;DHT22;576;48.418;10.074;2024-03-02T06:32:31;22.50;56.20
1175;DHT22;576;48.418;10.074;2024-03-02T06:35:00;22.50;56.30
1175;DHT22;576;48.418;10.074;2024-03-02T06:37:28;22.50;56.30
1175;DHT22;576;48.418;10.074;2024-03-02T06:39:57;22.50;56.30
1175;DHT22;576;48.418;10.074;2024-03-02T06:42:25;22.50;56.30
1175;DHT22;576;48.418;10.074;2024-03-02T06:44:53;22.50;56.40
1175;DHT22;576;48.418;10.074;2024-03-02T06:47:22;22.50;56.40
1175;DHT22;576;48.418;10.074;2024-03-02T06:49:51;22.50;56.40
1175;DHT22;576;48.418;10.074;2024-03-02T06:52:21;22.50;56.40
1175;DHT22;576;48.418;10.074;2024-03-02T06:54:51;22.50;56.30
1175;DHT22;576;48.418;10.074;2024-03-02T06:57:19;22.60;56.30
1175;DHT22;576;48.418;10.074;2024-03-02T06:59:48;22.60;56.30
1175;DHT22;576;48.418;10.074;2024-03-02T07:02:18;22.60;56.20
1175;DHT22;576;48.418;10.074;2024-03-02T07:04:47;22.60;56.10
1175;DHT22;576;48.418;10.074;2024-03-02T07:07:15;22.60;56.10
1175;DHT22;576;48.418;10.074;2024-03-02T07:09:45;22.60;56.10
1175;DHT22;576;48.418;10.074;2024-03-02T07:12:13;22.70;56.10
1175;DHT22;576;48.418;10.074;2024-03-02T07:14:41;22.70;56.00
1175;DHT22;576;48.418;10.074;2024-03-02T07:17:34;22.70;56.00
1175;DHT22;576;48.418;10.074;2024-03-02T07:20:05;22.70;56.00
1175;DHT22;576;48.418;10.074;2024-03-02T07:22:33;22.70;56.00
1175;DHT22;576;48.418;10.074;2024-03-02T07:25:04;22.70;56.00
1175;DHT22;576;48.418;10.074;2024-03-02T07:27:34;22.70;56.00
1175;DHT22;576;48.418;10.074;2024-03-02T07:30:03;22.70;56.00
1175;DHT22;576;48.418;10.074;2024-03-02T07:32:31;22.70;56.00
1175;DHT22;576;48.418;10.074;2024-03-02T07:34:59;22.70;55.90
1175;DHT22;576;48.418;10.074;2024-03-02T07:37:28;22.70;55.90
1175;DHT22;576;48.418;10.074;2024-03-02T07:39:56;22.70;55.90
1175;DHT22;576;48.418;10.074;2024-03-02T07:42:26;22.70;55.90
1175;DHT22;576;48.418;10.074;2024-03-02T07:44:54;22.70;55.90
1175;DHT22;576;48.418;10.074;2024-03-02T07:47:23;22.70;55.90
1175;DHT22;576;48.418;10.074;2024-03-02T07:49:51;22.70;55.90
1175;DHT22;576;48.418;10.074;2024-03-02T07:52:19;22.70;55.90
1175;DHT22;576;48.418;10.074;2024-03-02T07:54:48;22.70;55.90
1175;DHT22;576;48.418;10.074;2024-03-02T07:57:16;22.70;55.90
1175;DHT22;576;48.418;10.074;2024-03-02T07:59:46;22.70;55.90
1175;DHT22;576;48.418;10.074;2024-03-02T08:02:15;22.70;55.90
1175;DHT22;576;48.418;10.074;2024-03-02T08:04:43;22.70;55.90
1175;DHT22;576;48.418;10.074;2024-03-02T08:07:12;22.70;55.90
1175;DHT22;576;48.418;10.074;2024-03-02T08:09:41;22.70;56.00
1175;DHT22;576;48.418;10.074;2024-03-02T08:12:09;22.70;56.00
1175;DHT22;576;48.418;10.074;2024-03-02T08:14:37;22.70;56.00
1175;DHT22;576;48.418;10.074;2024-03-02T08:17:07;22.70;56.00
1175;DHT22;576;48.418;10.074;2024-03-02T08:19:36;22.70;56.10
1175;DHT22;576;48.418;10.074;2024-03-02T08:22:05;22.70;56.10
1175;DHT22;576;48.418;10.074;2024-03-02T08:24:33;22.60;56.10
1175;DHT22;576;48.418;10.074;2024-03-02T08:27:02;22.60;56.10
1175;DHT22;576;48.418;10.074;2024-03-02T08:29:30;22.60;56.10
1175;DHT22;576;48.418;10.074;2024-03-02T08:31:58;22.60;56.20
1175;DHT22;576;48.418;10.074;2024-03-02T08:34:28;22.60;56.30
1175;DHT22;576;48.418;10.074;2024-03-02T08:36:56;22.60;56.30
1175;DHT22;576;48.418;10.074;2024-03-02T08:39:25;22.60;56.30
1175;DHT22;576;48.418;10.074;2024-03-02T08:41:53;22.60;56.40
1175;DHT22;576;48.418;10.074;2024-03-02T08:44:22;22.60;56.50
1175;DHT22;576;48.418;10.074;2024-03-02T08:46:51;22.60;56.50
1175;DHT22;576;48.418;10.074;2024-03-02T08:49:19;22.50;56.60
1175;DHT22;576;48.418;10.074;2024-03-02T08:51:48;22.50;56.60
1175;DHT22;576;48.418;10.074;2024-03-02T08:54:22;22.50;56.60
1175;DHT22;576;48.418;10.074;2024-03-02T08:56:50;22.50;56.60
1175;DHT22;576;48.418;10.074;2024-03-02T08:59:18;22.50;56.70
1175;DHT22;576;48.418;10.074;2024-03-02T09:01:47;22.50;56.70
1175;DHT22;576;48.418;10.074;2024-03-02T09:04:16;22.50;56.70
1175;DHT22;576;48.418;10.074;2024-03-02T09:06:44;22.50;56.60
1175;DHT22;576;48.418;10.074;2024-03-02T09:09:14;22.50;56.60
1175;DHT22;576;48.418;10.074;2024-03-02T09:11:42;22.50;56.60
1175;DHT22;576;48.418;10.074;2024-03-02T09:14:10;22.50;56.50
1175;DHT22;576;48.418;10.074;2024-03-02T09:16:38;22.60;56.50
1175;DHT22;576;48.418;10.074;2024-03-02T09:19:07;22.60;56.50
1175;DHT22;576;48.418;10.074;2024-03-02T09:21:36;22.60;56.40
1175;DHT22;576;48.418;10.074;2024-03-02T09:24:05;22.60;56.40
1175;DHT22;576;48.418;10.074;2024-03-02T09:26:35;22.60;56.40
1175;DHT22;576;48.418;10.074;2024-03-02T09:29:03;22.50;56.40
1175;DHT22;576;48.418;10.074;2024-03-02T09:31:32;22.50;56.40
1175;DHT22;576;48.418;10.074;2024-03-02T09:34:00;22.50;56.40
1175;DHT22;576;48.418;10.074;2024-03-02T09:36:29;22.50;56.40
1175;DHT22;576;48.418;10.074;2024-03-02T09:38:58;22.50;56.50
1175;DHT22;576;48.418;10.074;2024-03-02T09:41:26;22.50;56.50
1175;DHT22;576;48.418;10.074;2024-03-02T09:43:57;22.50;56.50
1175;DHT22;576;48.418;10.074;2024-03-02T09:46:25;22.50;56.50
1175;DHT22;576;48.418;10.074;2024-03-02T09:48:54;22.50;56.50
1175;DHT22;576;48.418;10.074;2024-03-02T09:51:23;22.50;56.60
1175;DHT22;576;48.418;10.074;2024-03-02T09:53:51;22.50;56.60
1175;DHT22;576;48.418;10.074;2024-03-02T09:56:24;22.50;56.60
1175;DHT22;576;48.418;10.074;2024-03-02T09:58:52;22.50;56.60
1175;DHT22;576;48.418;10.074;2024-03-02T10:01:21;22.50;56.60
1175;DHT22;576;48.418;10.074;2024-03-02T10:03:50;22.50;56.60
1175;DHT22;576;48.418;10.074;2024-03-02T10:06:20;22.50;56.60
1175;DHT22;576;48.418;10.074;2024-03-02T10:08:48;22.50;56.60
1175;DHT22;576;48.418;10.074;2024-03-02T10:11:26;22.60;56.60
1175;DHT22;576;48.418;10.074;2024-03-02T10:14:06;22.60;56.60
1175;DHT22;576;48.418;10.074;2024-03-02T10:16:38;22.60;56.60
1175;DHT22;576;48.418;10.074;2024-03-02T10:19:16;22.60;56.40
1175;DHT22;576;48.418;10.074;2024-03-02T10:21:46;22.70;56.40
1175;DHT22;576;48.418;10.074;2024-03-02T10:24:14;22.70;56.30
1175;DHT22;576;48.418;10.074;2024-03-02T10:26:42;22.70;56.30
1175;DHT22;576;48.418;10.074;2024-03-02T10:29:11;22.70;56.30
1175;DHT22;576;48.418;10.074;2024-03-02T10:31:43;22.70;56.30
1175;DHT22;576;48.418;10.074;2024-03-02T10:34:13;22.70;56.30
1175;DHT22;576;48.418;10.074;2024-03-02T10:36:43;22.70;56.20
1175;DHT22;576;48.418;10.074;2024-03-02T10:39:14;22.70;56.20
1175;DHT22;576;48.418;10.074;2024-03-02T10:41:44;22.70;56.20
1175;DHT22;576;48.418;10.074;2024-03-02T10:44:13;22.80;56.10
1175;DHT22;576;48.418;10.074;2024-03-02T10:46:45;22.80;56.10
1175;DHT22;576;48.418;10.074;2024-03-02T10:49:14;22.80;56.10
1175;DHT22;576;48.418;10.074;2024-03-02T10:51:42;22.80;56.00
1175;DHT22;576;48.418;10.074;2024-03-02T10:54:10;22.80;56.00
1175;DHT22;576;48.418;10.074;2024-03-02T10:56:39;22.80;56.00
1175;DHT22;576;48.418;10.074;2024-03-02T10:59:26;22.80;56.20
1175;DHT22;576;48.418;10.074;2024-03-02T11:01:58;22.90;56.40
1175;DHT22;576;48.418;10.074;2024-03-02T11:04:32;23.00;56.30
1175;DHT22;576;48.418;10.074;2024-03-02T11:07:04;23.10;56.20
1175;DHT22;576;48.418;10.074;2024-03-02T11:09:34;23.30;56.20
1175;DHT22;576;48.418;10.074;2024-03-02T11:12:06;23.50;55.90
1175;DHT22;576;48.418;10.074;2024-03-02T11:14:40;23.80;55.60
1175;DHT22;576;48.418;10.074;2024-03-02T11:17:13;24.10;55.10
1175;DHT22;576;48.418;10.074;2024-03-02T11:19:43;24.40;54.60
1175;DHT22;576;48.418;10.074;2024-03-02T11:22:12;24.60;54.10
1175;DHT22;576;48.418;10.074;2024-03-02T11:24:48;24.80;54.00
1175;DHT22;576;48.418;10.074;2024-03-02T11:30:48;25.20;53.10
1175;DHT22;576;48.418;10.074;2024-03-02T11:33:24;25.30;52.60
1175;DHT22;576;48.418;10.074;2024-03-02T11:35:57;25.40;52.50
1175;DHT22;576;48.418;10.074;2024-03-02T11:38:33;25.50;52.20
1175;DHT22;576;48.418;10.074;2024-03-02T11:41:05;25.60;52.20
1175;DHT22;576;48.418;10.074;2024-03-02T11:43:37;25.70;52.20
1175;DHT22;576;48.418;10.074;2024-03-02T11:46:06;25.70;52.00
1175;DHT22;576;48.418;10.074;2024-03-02T11:48:37;25.70;52.00
1175;DHT22;576;48.418;10.074;2024-03-02T11:51:07;25.70;52.00
1175;DHT22;576;48.418;10.074;2024-03-02T11:53:35;25.70;51.90
1175;DHT22;576;48.418;10.074;2024-03-02T11:56:06;25.70;52.10
1175;DHT22;576;48.418;10.074;2024-03-02T11:58:39;25.70;52.00
1175;DHT22;576;48.418;10.074;2024-03-02T12:01:08;25.70;51.70
1175;DHT22;576;48.418;10.074;2024-03-02T12:03:39;25.70;51.80
1175;DHT22;576;48.418;10.074;2024-03-02T12:06:08;25.70;51.80
1175;DHT22;576;48.418;10.074;2024-03-02T12:08:36;25.70;51.90
1175;DHT22;576;48.418;10.074;2024-03-02T12:11:05;25.70;51.90
1175;DHT22;576;48.418;10.074;2024-03-02T12:13:33;25.60;51.90
1175;DHT22;576;48.418;10.074;2024-03-02T12:16:02;25.70;51.90
1175;DHT22;576;48.418;10.074;2024-03-02T12:18:30;25.70;51.80
1175;DHT22;576;48.418;10.074;2024-03-02T12:21:00;25.70;51.90
1175;DHT22;576;48.418;10.074;2024-03-02T12:23:30;25.70;51.80
1175;DHT22;576;48.418;10.074;2024-03-02T12:25:59;25.70;51.80
1175;DHT22;576;48.418;10.074;2024-03-02T12:28:27;25.70;51.80
1175;DHT22;576;48.418;10.074;2024-03-02T12:30:58;25.70;51.80
1175;DHT22;576;48.418;10.074;2024-03-02T12:33:26;25.70;51.80
1175;DHT22;576;48.418;10.074;2024-03-02T12:35:57;25.80;51.80
1175;DHT22;576;48.418;10.074;2024-03-02T12:38:27;25.80;52.00
1175;DHT22;576;48.418;10.074;2024-03-02T12:40:56;25.80;52.10
1175;DHT22;576;48.418;10.074;2024-03-02T12:43:29;25.80;52.10
1175;DHT22;576;48.418;10.074;2024-03-02T12:45:57;25.80;52.30
1175;DHT22;576;48.418;10.074;2024-03-02T12:48:26;25.80;52.40
1175;DHT22;576;48.418;10.074;2024-03-02T12:50:54;25.70;52.60
1175;DHT22;576;48.418;10.074;2024-03-02T12:53:22;25.70;52.80
1175;DHT22;576;48.418;10.074;2024-03-02T12:55:53;25.70;52.90
1175;DHT22;576;48.418;10.074;2024-03-02T12:58:23;25.70;52.90
1175;DHT22;576;48.418;10.074;2024-03-02T13:01:05;25.70;52.90
1175;DHT22;576;48.418;10.074;2024-03-02T13:03:35;25.70;53.00
1175;DHT22;576;48.418;10.074;2024-03-02T13:06:04;25.70;53.00
1175;DHT22;576;48.418;10.074;2024-03-02T13:08:33;25.70;53.00
1175;DHT22;576;48.418;10.074;2024-03-02T13:11:03;25.70;53.00
1175;DHT22;576;48.418;10.074;2024-03-02T13:13:34;25.60;53.10
1175;DHT22;576;48.418;10.074;2024-03-02T13:16:02;25.60;53.00
1175;DHT22;576;48.418;10.074;2024-03-02T13:18:31;25.60;53.10
1175;DHT22;576;48.418;10.074;2024-03-02T13:21:01;25.60;53.20
1175;DHT22;576;48.418;10.074;2024-03-02T13:23:29;25.50;53.10
1175;DHT22;576;48.418;10.074;2024-03-02T13:25:58;25.50;53.00
1175;DHT22;576;48.418;10.074;2024-03-02T13:28:27;25.50;53.00
1175;DHT22;576;48.418;10.074;2024-03-02T13:30:56;25.40;53.00
1175;DHT22;576;48.418;10.074;2024-03-02T13:33:25;25.40;53.00
1175;DHT22;576;48.418;10.074;2024-03-02T13:35:53;25.40;52.90
1175;DHT22;576;48.418;10.074;2024-03-02T13:38:21;25.40;52.90
1175;DHT22;576;48.418;10.074;2024-03-02T13:40:50;25.30;52.80
1175;DHT22;576;48.418;10.074;2024-03-02T13:43:19;25.30;52.70
1175;DHT22;576;48.418;10.074;2024-03-02T13:45:48;25.20;52.80
1175;DHT22;576;48.418;10.074;2024-03-02T13:48:19;25.20;52.90
1175;DHT22;576;48.418;10.074;2024-03-02T13:50:47;25.20;52.90
1175;DHT22;576;48.418;10.074;2024-03-02T13:53:16;25.20;52.90
1175;DHT22;576;48.418;10.074;2024-03-02T13:55:44;25.10;52.90
1175;DHT22;576;48.418;10.074;2024-03-02T13:58:13;25.10;52.90
1175;DHT22;576;48.418;10.074;2024-03-02T14:00:42;25.10;52.90
1175;DHT22;576;48.418;10.074;2024-03-02T14:03:13;25.00;53.00
1175;DHT22;576;48.418;10.074;2024-03-02T14:05:43;25.00;53.00
1175;DHT22;576;48.418;10.074;2024-03-02T14:08:12;25.00;53.10
1175;DHT22;576;48.418;10.074;2024-03-02T14:10:41;25.00;53.10
1175;DHT22;576;48.418;10.074;2024-03-02T14:13:09;25.00;53.20
1175;DHT22;576;48.418;10.074;2024-03-02T14:15:38;25.00;53.20
1175;DHT22;576;48.418;10.074;2024-03-02T14:18:06;25.00;53.20
1175;DHT22;576;48.418;10.074;2024-03-02T14:20:38;25.00;53.30
1175;DHT22;576;48.418;10.074;2024-03-02T14:23:09;25.00;53.30
1175;DHT22;576;48.418;10.074;2024-03-02T14:25:38;25.00;53.30
1175;DHT22;576;48.418;10.074;2024-03-02T14:28:06;25.00;53.30
1175;DHT22;576;48.418;10.074;2024-03-02T14:30:54;25.00;53.40
1175;DHT22;576;48.418;10.074;2024-03-02T14:33:23;25.00;53.40
1175;DHT22;576;48.418;10.074;2024-03-02T14:35:52;25.00;53.40
1175;DHT22;576;48.418;10.074;2024-03-02T14:38:21;25.00;53.40
1175;DHT22;576;48.418;10.074;2024-03-02T14:40:49;24.90;53.40
1175;DHT22;576;48.418;10.074;2024-03-02T14:43:19;24.90;53.40
1175;DHT22;576;48.418;10.074;2024-03-02T14:45:48;24.90;53.40
1175;DHT22;576;48.418;10.074;2024-03-02T14:48:16;24.90;53.40
1175;DHT22;576;48.418;10.074;2024-03-02T14:50:44;24.90;53.50
1175;DHT22;576;48.418;10.074;2024-03-02T14:53:14;24.90;53.50
1175;DHT22;576;48.418;10.074;2024-03-02T14:55:42;24.90;53.50
1175;DHT22;576;48.418;10.074;2024-03-02T14:58:10;24.80;53.50
1175;DHT22;576;48.418;10.074;2024-03-02T15:00:39;24.80;53.50
1175;DHT22;576;48.418;10.074;2024-03-02T15:03:07;24.80;53.50
1175;DHT22;576;48.418;10.074;2024-03-02T15:05:36;24.80;53.50
1175;DHT22;576;48.418;10.074;2024-03-02T15:08:05;24.80;53.50
1175;DHT22;576;48.418;10.074;2024-03-02T15:10:35;24.80;53.50
1175;DHT22;576;48.418;10.074;2024-03-02T15:13:03;24.80;53.60
1175;DHT22;576;48.418;10.074;2024-03-02T15:15:32;24.80;53.60
1175;DHT22;576;48.418;10.074;2024-03-02T15:18:00;24.80;53.60
1175;DHT22;576;48.418;10.074;2024-03-02T15:20:32;24.70;53.60
1175;DHT22;576;48.418;10.074;2024-03-02T15:23:00;24.70;53.70
1175;DHT22;576;48.418;10.074;2024-03-02T15:25:27;24.70;53.60
1175;DHT22;576;48.418;10.074;2024-03-02T15:27:56;24.70;53.50
1175;DHT22;576;48.418;10.074;2024-03-02T15:30:25;24.70;53.50
1175;DHT22;576;48.418;10.074;2024-03-02T15:32:53;24.70;53.50
1175;DHT22;576;48.418;10.074;2024-03-02T15:35:21;24.70;53.50
1175;DHT22;576;48.418;10.074;2024-03-02T15:37:49;24.60;53.50
1175;DHT22;576;48.418;10.074;2024-03-02T15:40:18;24.60;53.50
1175;DHT22;576;48.418;10.074;2024-03-02T15:42:46;24.50;53.60
1175;DHT22;576;48.418;10.074;2024-03-02T15:45:16;24.40;53.70
1175;DHT22;576;48.418;10.074;2024-03-02T15:47:44;24.40;53.60
1175;DHT22;576;48.418;10.074;2024-03-02T15:50:13;24.40;53.70
1175;DHT22;576;48.418;10.074;2024-03-02T15:52:41;24.30;53.80
1175;DHT22;576;48.418;10.074;2024-03-02T15:55:12;24.30;54.00
1175;DHT22;576;48.418;10.074;2024-03-02T15:57:40;24.30;54.50
1175;DHT22;576;48.418;10.074;2024-03-02T16:00:09;24.20;54.70
1175;DHT22;576;48.418;10.074;2024-03-02T16:02:39;24.20;54.70
1175;DHT22;576;48.418;10.074;2024-03-02T16:05:08;24.20;54.80
1175;DHT22;576;48.418;10.074;2024-03-02T16:07:36;24.20;54.70
1175;DHT22;576;48.418;10.074;2024-03-02T16:10:06;24.20;54.80
1175;DHT22;576;48.418;10.074;2024-03-02T16:12:34;24.20;55.10
1175;DHT22;576;48.418;10.074;2024-03-02T16:15:04;24.20;55.10
1175;DHT22;576;48.418;10.074;2024-03-02T16:17:33;24.20;55.10
1175;DHT22;576;48.418;10.074;2024-03-02T16:20:03;24.20;55.10